Time;durP1;ratioP1;P1;durP2;ratioP2;P2;SDS_P1;SDS_P2;PMS_P1;PMS_P2;Temp;Humidity;BMP_temperature;BMP_pressure;BME280_temperature;BME280_humidity;BME280_pressure;Samples;Min_cycle;Max_cycle;Signal;HPM_P1;HPM_P2
2022/09/27 00:01:11;;;;;;;2.60;1.00;;;;;;;10.10;99.62;98624.08;108235;1274;75265;-75
2022/09/27 00:03:38;;;;;;;1.80;1.10;;;;;;;10.10;99.73;98624.98;108215;1274;71172;-75
2022/09/27 00:06:10;;;;;;;2.70;0.90;;;;;;;10.10;99.84;98626.09;108229;1274;74593;-76
2022/09/27 00:08:37;;;;;;;2.60;1.00;;;;;;;10.11;99.76;98618.87;108143;1274;62282;-75
2022/09/27 00:11:14;;;;;;;1.70;0.90;;;;;;;10.12;99.76;98615.77;108278;1274;61528;-75
2022/09/27 00:13:40;;;;;;;2.20;1.10;;;;;;;10.13;99.91;98614.31;108249;1274;74785;-75
2022/09/27 00:16:08;;;;;;;1.80;0.90;;;;;;;10.15;99.94;98615.05;108186;1274;71442;-75
2022/09/27 00:18:35;;;;;;;1.90;1.00;;;;;;;10.15;99.92;98614.90;108040;1277;72931;-75
2022/09/27 00:21:11;;;;;;;1.90;1.10;;;;;;;10.16;99.93;98614.45;108161;1273;62933;-75
2022/09/27 00:23:38;;;;;;;2.00;1.20;;;;;;;10.16;99.98;98615.26;108136;1274;60361;-75
2022/09/27 00:26:12;;;;;;;2.70;1.00;;;;;;;10.17;99.97;98611.05;108244;1274;74950;-75
2022/09/27 00:28:39;;;;;;;2.50;1.00;;;;;;;10.19;100.00;98603.35;108258;1273;72374;-75
2022/09/27 00:31:23;;;;;;;2.40;1.20;;;;;;;10.19;99.96;98602.10;108221;1274;71937;-75
2022/09/27 00:33:52;;;;;;;2.10;1.00;;;;;;;10.19;100.00;98607.06;108040;1277;64013;-75
2022/09/27 00:36:20;;;;;;;2.30;1.10;;;;;;;10.20;100.00;98607.40;108108;1277;59520;-75
2022/09/27 00:38:47;;;;;;;1.90;1.00;;;;;;;10.19;100.00;98604.35;108135;1274;74799;-75
2022/09/27 00:41:20;;;;;;;2.60;1.00;;;;;;;10.21;100.00;98598.58;108214;1274;71365;-75
2022/09/27 00:43:56;;;;;;;1.80;1.00;;;;;;;10.21;100.00;98595.71;108230;1274;74748;-75
2022/09/27 00:46:26;;;;;;;2.10;1.00;;;;;;;10.21;100.00;98590.30;108094;1274;62022;-75
2022/09/27 00:49:04;;;;;;;3.00;1.20;;;;;;;10.22;100.00;98589.59;108102;1274;59474;-75
2022/09/27 00:51:36;;;;;;;2.10;1.10;;;;;;;10.22;100.00;98588.69;108216;1274;74750;-76
2022/09/27 00:54:04;;;;;;;1.70;1.00;;;;;;;10.21;100.00;98586.23;108055;1274;72095;-76
2022/09/27 00:56:32;;;;;;;1.50;1.00;;;;;;;10.18;100.00;98581.61;108222;1273;73855;-75
2022/09/27 00:59:06;;;;;;;1.50;0.90;;;;;;;10.18;100.00;98577.45;108189;1274;63550;-75
2022/09/27 01:01:33;;;;;;;3.30;1.10;;;;;;;10.15;100.00;98577.29;108181;1274;60880;-75
2022/09/27 01:04:11;;;;;;;1.90;1.10;;;;;;;10.14;100.00;98578.77;108112;1274;75929;-75
2022/09/27 01:06:38;;;;;;;2.50;1.20;;;;;;;10.10;100.00;98577.30;108160;1276;71572;-75
2022/09/27 01:09:07;;;;;;;1.80;1.10;;;;;;;10.10;100.00;98570.64;108107;1276;74255;-75
2022/09/27 01:11:50;;;;;;;3.20;1.40;;;;;;;10.09;100.00;98569.53;108213;1274;63267;-75
2022/09/27 01:14:44;;;;;;;2.60;1.30;;;;;;;10.09;100.00;98568.16;108125;1275;61393;-75
2022/09/27 01:17:23;;;;;;;3.30;1.50;;;;;;;10.09;100.00;98568.67;108221;1274;74577;-75
2022/09/27 01:19:52;;;;;;;2.30;1.50;;;;;;;10.09;100.00;98569.73;108239;1274;72446;-75
2022/09/27 01:22:37;;;;;;;2.10;1.40;;;;;;;10.09;100.00;98568.27;108220;1274;73653;-75
2022/09/27 01:25:39;;;;;;;5.40;1.70;;;;;;;10.10;100.00;98570.71;108056;1274;62739;-75
2022/09/27 01:28:21;;;;;;;2.80;1.50;;;;;;;10.12;100.00;98567.59;108117;1277;62307;-74
2022/09/27 01:30:53;;;;;;;2.20;1.50;;;;;;;10.13;100.00;98564.77;108243;1274;75675;-75
2022/09/27 01:34:01;;;;;;;2.50;1.60;;;;;;;10.15;100.00;98563.59;108146;1274;72472;-75
2022/09/27 01:36:32;;;;;;;4.40;2.00;;;;;;;10.16;100.00;98558.02;108240;1274;72594;-74
2022/09/27 01:39:08;;;;;;;2.90;1.80;;;;;;;10.17;100.00;98560.02;108184;1274;63323;-74
2022/09/27 01:41:49;;;;;;;4.00;1.90;;;;;;;10.18;100.00;98559.88;108226;1274;60904;-75
2022/09/27 01:44:31;;;;;;;2.40;1.70;;;;;;;10.19;100.00;98559.22;108268;1274;76006;-75
2022/09/27 01:47:04;;;;;;;3.60;1.90;;;;;;;10.20;100.00;98558.96;108122;1276;72400;-74
2022/09/27 01:49:56;;;;;;;2.10;1.70;;;;;;;10.20;100.00;98553.77;108216;1274;71933;-74
2022/09/27 01:52:33;;;;;;;5.40;1.70;;;;;;;10.22;100.00;98553.19;108194;1274;62222;-75
2022/09/27 01:55:03;;;;;;;2.40;1.60;;;;;;;10.22;100.00;98554.36;108246;1274;59380;-75
2022/09/27 01:57:36;;;;;;;3.80;1.80;;;;;;;10.23;100.00;98549.14;108220;1274;75893;-75
2022/09/27 02:00:09;;;;;;;2.50;1.80;;;;;;;10.23;100.00;98541.39;108299;1274;72170;-75
2022/09/27 02:02:41;;;;;;;5.80;2.10;;;;;;;10.23;100.00;98538.77;108261;1274;74062;-75
2022/09/27 02:05:12;;;;;;;3.70;2.10;;;;;;;10.23;100.00;98538.58;108256;1273;63718;-75
2022/09/27 02:07:52;;;;;;;3.80;2.30;;;;;;;10.23;100.00;98537.35;108122;1274;60616;-75
2022/09/27 02:10:28;;;;;;;3.40;2.60;;;;;;;10.23;100.00;98537.04;108238;1274;74762;-75
2022/09/27 02:13:16;;;;;;;5.10;2.90;;;;;;;10.24;100.00;98540.02;108230;1274;71373;-75
2022/09/27 02:16:20;;;;;;;4.10;2.90;;;;;;;10.20;100.00;98541.48;108264;1274;74787;-75
2022/09/27 02:18:58;;;;;;;5.80;3.00;;;;;;;10.18;100.00;98539.59;107877;1276;61779;-75
2022/09/27 02:21:35;;;;;;;4.10;2.70;;;;;;;10.17;100.00;98539.27;108243;1274;59615;-75
2022/09/27 02:24:04;;;;;;;4.70;3.60;;;;;;;10.16;100.00;98536.08;108145;1274;75250;-75
2022/09/27 02:26:44;;;;;;;6.10;3.50;;;;;;;10.14;100.00;98535.23;108255;1273;72768;-75
2022/09/27 02:29:44;;;;;;;5.80;3.40;;;;;;;10.15;100.00;98534.89;108261;1274;72835;-75
2022/09/27 02:32:11;;;;;;;7.80;4.20;;;;;;;10.17;100.00;98533.08;108062;1274;61869;-75
2022/09/27 02:34:39;;;;;;;10.90;6.60;;;;;;;10.18;100.00;98538.69;108290;1274;61562;-75
2022/09/27 02:37:06;;;;;;;8.60;5.50;;;;;;;10.19;100.00;98536.59;108246;1274;74870;-75
2022/09/27 02:39:33;;;;;;;15.40;8.40;;;;;;;10.20;100.00;98541.77;108142;1274;72600;-75
2022/09/27 02:42:00;;;;;;;13.00;7.90;;;;;;;10.20;100.00;98535.81;108221;1274;72727;-75
2022/09/27 02:44:28;;;;;;;8.40;5.90;;;;;;;10.22;100.00;98532.55;108182;1274;62817;-76
2022/09/27 02:47:06;;;;;;;10.10;5.80;;;;;;;10.22;100.00;98534.31;108203;1274;60517;-75
2022/09/27 02:50:06;;;;;;;9.90;5.80;;;;;;;10.19;100.00;98531.61;108267;1274;75314;-76
2022/09/27 02:52:41;;;;;;;9.10;5.50;;;;;;;10.19;100.00;98527.95;108270;1274;70436;-75
2022/09/27 02:55:08;;;;;;;9.40;4.70;;;;;;;10.18;100.00;98525.07;108220;1274;73212;-75
2022/09/27 02:58:02;;;;;;;8.00;4.80;;;;;;;10.20;100.00;98525.42;108212;1273;65246;-75
2022/09/27 03:00:48;;;;;;;5.80;4.20;;;;;;;10.20;100.00;98531.41;108151;1276;60950;-75
2022/09/27 03:03:26;;;;;;;7.20;4.30;;;;;;;10.19;100.00;98525.94;108272;1274;76847;-75
2022/09/27 03:06:12;;;;;;;6.10;4.30;;;;;;;10.19;100.00;98527.38;108145;1274;71482;-75
2022/09/27 03:08:40;;;;;;;5.80;4.20;;;;;;;10.20;100.00;98525.58;108239;1274;72991;-75
2022/09/27 03:11:07;;;;;;;6.40;4.30;;;;;;;10.23;100.00;98525.17;108270;1274;61832;-75
2022/09/27 03:13:37;;;;;;;6.30;4.40;;;;;;;10.25;100.00;98525.50;108280;1274;60592;-75
2022/09/27 03:16:24;;;;;;;5.60;3.90;;;;;;;10.27;100.00;98522.21;108243;1274;74780;-75
2022/09/27 03:18:51;;;;;;;6.80;4.30;;;;;;;10.29;100.00;98521.50;108249;1274;72670;-75
2022/09/27 03:21:17;;;;;;;5.70;4.30;;;;;;;10.29;100.00;98518.83;108266;1274;72867;-75
2022/09/27 03:23:44;;;;;;;7.10;4.50;;;;;;;10.30;100.00;98521.87;108166;1274;61945;-75
2022/09/27 03:26:11;;;;;;;7.70;4.50;;;;;;;10.31;100.00;98521.22;108204;1274;60101;-75
2022/09/27 03:28:39;;;;;;;8.40;4.70;;;;;;;10.31;100.00;98520.69;108174;1274;74940;-75
2022/09/27 03:31:09;;;;;;;7.20;4.30;;;;;;;10.32;100.00;98520.88;108262;1274;72671;-75
2022/09/27 03:33:38;;;;;;;5.90;4.50;;;;;;;10.32;100.00;98521.58;108080;1277;72862;-75
2022/09/27 03:36:10;;;;;;;7.70;4.50;;;;;;;10.30;100.00;98521.31;108025;1276;61528;-75
2022/09/27 03:38:39;;;;;;;7.00;4.40;;;;;;;10.31;100.00;98518.20;108132;1273;60550;-75
2022/09/27 03:41:09;;;;;;;6.00;4.30;;;;;;;10.31;100.00;98516.30;108072;1274;76252;-75
2022/09/27 03:43:36;;;;;;;7.90;4.50;;;;;;;10.29;100.00;98514.73;108261;1274;71353;-75
2022/09/27 03:46:03;;;;;;;5.60;3.90;;;;;;;10.25;100.00;98516.86;108116;1274;73730;-75
2022/09/27 03:48:33;;;;;;;6.80;4.20;;;;;;;10.25;100.00;98519.77;108238;1274;63242;-75
2022/09/27 03:51:00;;;;;;;5.70;4.20;;;;;;;10.25;100.00;98515.84;108070;1274;59321;-75
2022/09/27 03:53:27;;;;;;;6.30;4.30;;;;;;;10.25;100.00;98513.73;108108;1274;75949;-75
2022/09/27 03:55:53;;;;;;;6.00;3.80;;;;;;;10.26;100.00;98517.35;108245;1274;71216;-76
2022/09/27 03:58:21;;;;;;;5.10;3.60;;;;;;;10.25;100.00;98511.70;108180;1274;72046;-75
2022/09/27 04:00:48;;;;;;;6.30;3.70;;;;;;;10.25;100.00;98514.09;108273;1274;63363;-75
2022/09/27 04:03:18;;;;;;;5.20;3.70;;;;;;;10.25;100.00;98515.40;108264;1274;60603;-75
2022/09/27 04:05:45;;;;;;;4.80;3.90;;;;;;;10.26;100.00;98515.55;108186;1274;74787;-76
2022/09/27 04:08:12;;;;;;;5.20;3.90;;;;;;;10.27;100.00;98517.16;108208;1274;72390;-76
2022/09/27 04:10:40;;;;;;;7.50;3.90;;;;;;;10.28;100.00;98516.65;108254;1274;74094;-75
2022/09/27 04:13:07;;;;;;;5.30;3.90;;;;;;;10.30;100.00;98514.98;108109;1274;61124;-75
2022/09/27 04:15:34;;;;;;;7.00;4.20;;;;;;;10.28;100.00;98514.61;108280;1273;59927;-75
2022/09/27 04:18:01;;;;;;;6.30;4.30;;;;;;;10.28;100.00;98512.16;108238;1274;74932;-74
2022/09/27 04:20:28;;;;;;;5.70;4.20;;;;;;;10.29;100.00;98516.05;108245;1274;70359;-73
2022/09/27 04:22:55;;;;;;;6.00;4.40;;;;;;;10.28;100.00;98517.23;108266;1274;74057;-74
2022/09/27 04:25:22;;;;;;;6.70;3.90;;;;;;;10.23;100.00;98520.03;108120;1274;62863;-74
2022/09/27 04:27:54;;;;;;;4.20;2.60;;;;;;;10.14;100.00;98522.47;108233;1274;60416;-74
2022/09/27 04:30:21;;;;;;;4.00;2.40;;;;;;;10.06;100.00;98525.69;108200;1274;75922;-75
2022/09/27 04:32:48;;;;;;;4.20;2.40;;;;;;;9.99;100.00;98528.42;108269;1274;71160;-75
2022/09/27 04:38:00;;;;;;;5.00;2.20;;;;;;;9.90;100.00;98532.10;108220;1274;60154;-75
2022/09/27 04:40:27;;;;;;;3.60;2.30;;;;;;;9.85;100.00;98526.54;108280;1274;60876;-76
2022/09/27 04:42:55;;;;;;;5.40;2.00;;;;;;;9.80;100.00;98530.92;108232;1274;75339;-70
2022/09/27 04:45:21;;;;;;;4.20;2.40;;;;;;;9.77;100.00;98536.31;108146;1274;71282;-70
2022/09/27 04:47:49;;;;;;;4.20;2.20;;;;;;;9.76;100.00;98535.27;108209;1274;59295;-70
2022/09/27 04:50:17;;;;;;;3.60;2.20;;;;;;;9.75;100.00;98540.02;108135;1274;64059;-70
2022/09/27 04:52:43;;;;;;;6.00;2.60;;;;;;;9.76;100.00;98537.48;108272;1274;59550;-70
2022/09/27 04:55:10;;;;;;;4.60;2.60;;;;;;;9.76;100.00;98539.77;108294;1274;75829;-70
2022/09/27 04:57:37;;;;;;;5.50;3.10;;;;;;;9.76;100.00;98538.09;108175;1274;72002;-70
2022/09/27 05:00:04;;;;;;;7.00;4.20;;;;;;;9.77;100.00;98543.04;108256;1274;72736;-70
2022/09/27 05:02:30;;;;;;;6.60;4.60;;;;;;;9.80;100.00;98544.97;108251;1274;62426;-70
2022/09/27 05:04:58;;;;;;;11.70;5.70;;;;;;;9.81;100.00;98548.54;108278;1274;61326;-70
2022/09/27 05:07:26;;;;;;;10.20;5.90;;;;;;;9.81;100.00;98554.16;108216;1274;76203;-70
2022/09/27 05:09:52;;;;;;;11.00;6.00;;;;;;;9.84;100.00;98553.23;108214;1271;71556;-70
2022/09/27 05:12:20;;;;;;;8.10;5.50;;;;;;;9.86;100.00;98553.66;108217;1274;72246;-70
2022/09/27 05:14:46;;;;;;;9.00;5.10;;;;;;;9.86;100.00;98557.05;108331;1274;63228;-70
2022/09/27 05:17:13;;;;;;;8.00;5.40;;;;;;;9.86;100.00;98558.21;108377;1274;60435;-70
2022/09/27 05:19:40;;;;;;;9.40;5.50;;;;;;;9.88;100.00;98559.25;108375;1274;75253;-70
2022/09/27 05:22:06;;;;;;;9.30;4.90;;;;;;;9.86;100.00;98562.59;108327;1274;70216;-70
2022/09/27 05:24:34;;;;;;;8.40;4.30;;;;;;;9.84;100.00;98571.23;108372;1274;72906;-70
2022/09/27 05:27:01;;;;;;;7.10;4.40;;;;;;;9.85;100.00;98569.97;108326;1273;61496;-70
2022/09/27 05:29:28;;;;;;;7.10;4.60;;;;;;;9.84;100.00;98573.19;108315;1274;60530;-70
2022/09/27 05:31:55;;;;;;;7.20;4.20;;;;;;;9.86;100.00;98574.84;108386;1274;74760;-70
2022/09/27 05:34:22;;;;;;;6.60;3.80;;;;;;;9.85;100.00;98575.26;108352;1274;59738;-70
2022/09/27 05:36:48;;;;;;;6.10;3.80;;;;;;;9.84;100.00;98578.48;108375;1274;74224;-70
2022/09/27 05:39:16;;;;;;;6.50;3.30;;;;;;;9.83;100.00;98578.66;108292;1274;63237;-70
2022/09/27 05:41:43;;;;;;;8.00;3.50;;;;;;;9.84;100.00;98580.49;108372;1273;60705;-70
2022/09/27 05:44:10;;;;;;;7.20;3.20;;;;;;;9.84;100.00;98579.11;108332;1274;75918;-70
2022/09/27 05:46:37;;;;;;;6.40;3.20;;;;;;;9.84;100.00;98581.19;108354;1273;72213;-70
2022/09/27 05:49:05;;;;;;;6.00;3.40;;;;;;;9.84;100.00;98579.48;108330;1274;74002;-71
2022/09/27 05:51:31;;;;;;;8.60;3.70;;;;;;;9.85;100.00;98580.85;108217;1274;62149;-70
2022/09/27 05:53:58;;;;;;;5.90;3.30;;;;;;;9.86;100.00;98580.91;108376;1274;62117;-70
2022/09/27 05:56:24;;;;;;;6.30;3.50;;;;;;;9.86;100.00;98584.02;108393;1274;74610;-70
2022/09/27 05:58:51;;;;;;;6.10;3.10;;;;;;;9.86;100.00;98583.04;108364;1274;71375;-70
2022/09/27 06:01:18;;;;;;;8.20;3.70;;;;;;;9.87;100.00;98584.86;108353;1273;59132;-70
2022/09/27 06:03:46;;;;;;;4.70;2.70;;;;;;;9.86;100.00;98590.20;108305;1274;62339;-70
2022/09/27 06:06:14;;;;;;;5.90;2.80;;;;;;;9.87;100.00;98590.07;108336;1274;61765;-70
2022/09/27 06:08:41;;;;;;;5.90;2.80;;;;;;;9.89;100.00;98591.08;108412;1273;75954;-70
2022/09/27 06:11:13;;;;;;;5.40;2.90;;;;;;;9.89;100.00;98595.91;108258;1274;71376;-70
2022/09/27 06:13:40;;;;;;;6.10;3.10;;;;;;;9.91;100.00;98597.18;108350;1274;72969;-70
2022/09/27 06:16:10;;;;;;;5.00;2.60;;;;;;;9.93;100.00;98595.11;108359;1273;62578;-70
2022/09/27 06:18:36;;;;;;;6.30;3.10;;;;;;;9.94;100.00;98600.70;108373;1274;60775;-70
2022/09/27 06:21:06;;;;;;;6.80;3.50;;;;;;;9.94;100.00;98601.88;108383;1274;75914;-70
2022/09/27 06:23:33;;;;;;;8.80;3.70;;;;;;;9.95;100.00;98602.16;108332;1273;71110;-70
2022/09/27 06:26:02;;;;;;;7.30;3.70;;;;;;;9.97;100.00;98602.25;108330;1274;59732;-70
2022/09/27 06:28:29;;;;;;;6.30;3.60;;;;;;;9.97;100.00;98604.39;108334;1274;62960;-70
2022/09/27 06:30:56;;;;;;;5.60;3.20;;;;;;;10.01;100.00;98601.10;108368;1272;60383;-70
2022/09/27 06:33:24;;;;;;;7.10;3.30;;;;;;;10.01;100.00;98607.88;108130;1277;76147;-70
2022/09/27 06:35:52;;;;;;;6.40;3.30;;;;;;;10.03;100.00;98608.63;108362;1273;73077;-70
2022/09/27 06:38:20;;;;;;;6.50;3.30;;;;;;;10.03;100.00;98610.01;108206;1274;72796;-70
2022/09/27 06:40:47;;;;;;;8.30;3.00;;;;;;;10.04;100.00;98618.77;108395;1274;62059;-70
2022/09/27 06:43:16;;;;;;;6.20;3.40;;;;;;;10.01;100.00;98618.92;108334;1273;61566;-70
2022/09/27 06:45:43;;;;;;;6.00;3.10;;;;;;;10.08;100.00;98617.08;108383;1274;74660;-70
2022/09/27 06:48:11;;;;;;;6.60;2.80;;;;;;;10.09;100.00;98621.63;108389;1274;72790;-70
2022/09/27 06:50:40;;;;;;;4.90;2.30;;;;;;;10.09;100.00;98625.11;108380;1274;72242;-70
2022/09/27 06:53:09;;;;;;;6.10;2.60;;;;;;;10.10;100.00;98633.14;108335;1274;62028;-70
2022/09/27 06:55:36;;;;;;;5.10;2.30;;;;;;;10.12;100.00;98629.44;108389;1274;61110;-70
2022/09/27 07:00:52;;;;;;;3.70;2.20;;;;;;;10.10;100.00;98640.36;108354;1273;70141;-70
2022/09/27 07:03:22;;;;;;;5.30;2.60;;;;;;;10.13;100.00;98638.05;108321;1274;72873;-70
2022/09/27 07:05:56;;;;;;;4.40;2.20;;;;;;;10.18;100.00;98637.91;108236;1274;62007;-70
2022/09/27 07:08:25;;;;;;;6.30;2.50;;;;;;;10.20;100.00;98641.74;108208;1276;60560;-70
2022/09/27 07:10:53;;;;;;;6.40;2.90;;;;;;;10.27;100.00;98641.02;108361;1274;76216;-71
2022/09/27 07:13:20;;;;;;;6.10;2.90;;;;;;;10.31;100.00;98644.09;108290;1274;71074;-71
2022/09/27 07:15:47;;;;;;;5.90;3.10;;;;;;;10.33;100.00;98651.50;108119;1277;72708;-71
2022/09/27 07:18:14;;;;;;;4.60;2.60;;;;;;;10.34;100.00;98648.70;108290;1274;62246;-71
2022/09/27 07:20:40;;;;;;;7.30;3.50;;;;;;;10.33;100.00;98650.44;108367;1273;60462;-71
2022/09/27 07:23:09;;;;;;;6.10;3.80;;;;;;;10.32;100.00;98659.52;108380;1274;59398;-71
2022/09/27 07:25:36;;;;;;;6.80;3.80;;;;;;;10.31;100.00;98663.06;108380;1273;72270;-71
2022/09/27 07:28:05;;;;;;;6.00;3.30;;;;;;;10.28;100.00;98665.55;108262;1275;58850;-71
2022/09/27 07:30:33;;;;;;;7.10;3.90;;;;;;;10.30;100.00;98665.83;108334;1274;61087;-71
2022/09/27 07:33:01;;;;;;;6.80;4.10;;;;;;;10.32;100.00;98669.07;108372;1274;61643;-71
2022/09/27 07:35:27;;;;;;;8.60;4.90;;;;;;;10.34;100.00;98668.17;108264;1274;75081;-71
2022/09/27 07:37:55;;;;;;;8.40;4.30;;;;;;;10.34;100.00;98667.27;108210;1277;71568;-70
2022/09/27 07:40:22;;;;;;;7.50;4.20;;;;;;;10.32;100.00;98671.98;108372;1274;73760;-70
2022/09/27 07:42:57;;;;;;;6.20;3.70;;;;;;;10.31;100.00;98678.23;108286;1274;63179;-70
2022/09/27 07:45:25;;;;;;;6.90;4.00;;;;;;;10.28;100.00;98685.13;108415;1274;59481;-70
2022/09/27 07:47:52;;;;;;;5.20;3.40;;;;;;;10.27;100.00;98689.92;108374;1274;74847;-70
2022/09/27 07:50:19;;;;;;;8.00;3.70;;;;;;;10.24;100.00;98691.02;108398;1273;71412;-70
2022/09/27 07:52:49;;;;;;;8.40;3.30;;;;;;;10.26;100.00;98695.09;108302;1274;71781;-70
2022/09/27 07:55:17;;;;;;;5.90;3.40;;;;;;;10.29;100.00;98691.19;108399;1274;62688;-71
2022/09/27 07:57:44;;;;;;;5.30;3.10;;;;;;;10.32;99.86;98697.54;108380;1274;60499;-70
2022/09/27 08:00:13;;;;;;;5.80;3.40;;;;;;;10.33;99.77;98701.23;108255;1274;74886;-70
2022/09/27 08:02:41;;;;;;;6.20;3.60;;;;;;;10.33;99.59;98708.33;108177;1276;71332;-70
2022/09/27 08:05:09;;;;;;;6.00;3.30;;;;;;;10.31;98.92;98711.58;108221;1275;73713;-71
2022/09/27 08:07:37;;;;;;;4.70;2.60;;;;;;;10.31;98.53;98710.02;108342;1274;62156;-70
2022/09/27 08:10:07;;;;;;;7.00;2.80;;;;;;;10.31;97.80;98721.10;108361;1273;60402;-71
2022/09/27 08:12:34;;;;;;;5.00;3.10;;;;;;;10.33;97.60;98717.23;108380;1274;74471;-71
2022/09/27 08:15:03;;;;;;;6.60;3.10;;;;;;;10.32;97.25;98719.42;108406;1273;71667;-71
2022/09/27 08:17:31;;;;;;;6.50;3.40;;;;;;;10.33;97.27;98721.91;108345;1274;73881;-71
2022/09/27 08:19:57;;;;;;;6.80;4.00;;;;;;;10.32;97.70;98729.55;108362;1274;62530;-71
2022/09/27 08:22:24;;;;;;;8.20;3.60;;;;;;;10.27;98.19;98733.94;108387;1273;61425;-71
2022/09/27 08:24:50;;;;;;;7.80;4.10;;;;;;;10.21;98.77;98736.64;108370;1273;74604;-71
2022/09/27 08:27:17;;;;;;;8.60;5.70;;;;;;;10.13;98.72;98734.23;108390;1273;71025;-71
2022/09/27 08:29:44;;;;;;;9.30;5.90;;;;;;;10.07;98.78;98742.77;108350;1274;59322;-71
2022/09/27 08:32:11;;;;;;;8.40;5.10;;;;;;;10.02;98.93;98746.55;108243;1274;61148;-71
2022/09/27 08:34:37;;;;;;;9.00;5.90;;;;;;;10.03;99.31;98746.70;108370;1274;59702;-71
2022/09/27 08:37:04;;;;;;;7.20;5.40;;;;;;;9.99;98.71;98754.36;108380;1272;77339;-71
2022/09/27 08:39:31;;;;;;;7.90;5.30;;;;;;;10.01;98.50;98756.16;108391;1274;71412;-71
2022/09/27 08:42:23;;;;;;;9.40;4.90;;;;;;;10.02;97.91;98761.25;108368;1274;72163;-71
2022/09/27 08:45:10;;;;;;;8.30;4.40;;;;;;;10.05;97.10;98758.94;108327;1274;63374;-71
2022/09/27 08:47:45;;;;;;;6.60;4.10;;;;;;;10.12;97.20;98764.56;108395;1273;60111;-71
2022/09/27 08:50:26;;;;;;;6.60;4.10;;;;;;;10.18;96.21;98766.95;108287;1274;73106;-72
2022/09/27 08:53:02;;;;;;;8.00;4.70;;;;;;;10.30;96.14;98764.90;108377;1274;70865;-72
2022/09/27 08:55:39;;;;;;;7.90;4.40;;;;;;;10.42;95.37;98769.90;108345;1274;73063;-72
2022/09/27 08:58:18;;;;;;;8.20;4.90;;;;;;;10.56;94.67;98773.06;107574;1271;62039;-71
2022/09/27 09:00:45;;;;;;;8.20;4.10;;;;;;;10.67;94.34;98770.23;107534;1274;61208;-72
2022/09/27 09:03:18;;;;;;;7.60;4.80;;;;;;;10.75;93.98;98772.63;107657;1274;75255;-72
2022/09/27 09:06:17;;;;;;;7.30;4.60;;;;;;;10.89;93.24;98778.27;107721;1272;71327;-73
2022/09/27 09:09:02;;;;;;;6.30;3.70;;;;;;;11.03;92.80;98776.14;107101;1276;73927;-73
2022/09/27 09:13:00;;;;;;;6.90;4.00;;;;;;;11.11;91.98;98776.24;107775;1274;61620;-72
2022/09/27 09:15:30;;;;;;;7.10;4.10;;;;;;;11.15;90.72;98782.20;107263;1276;61145;-72
2022/09/27 09:18:39;;;;;;;6.10;4.00;;;;;;;11.22;90.52;98773.30;108115;1274;75251;-72
2022/09/27 09:21:27;;;;;;;5.00;3.50;;;;;;;11.32;90.51;98777.15;107334;1274;70056;-73
2022/09/27 09:24:33;;;;;;;5.50;3.60;;;;;;;11.31;88.62;98780.77;107727;1273;72838;-73
2022/09/27 09:27:23;;;;;;;3.60;2.00;;;;;;;11.36;86.41;98795.23;107249;1274;62996;-72
2022/09/27 09:30:02;;;;;;;4.70;2.10;;;;;;;11.36;85.34;98800.58;107826;1274;61566;-73
2022/09/27 09:32:37;;;;;;;4.10;2.60;;;;;;;11.46;85.41;98791.05;107617;1274;74452;-73
2022/09/27 09:35:14;;;;;;;4.60;2.70;;;;;;;11.57;86.22;98780.66;108045;1274;71460;-72
2022/09/27 09:37:55;;;;;;;5.90;2.80;;;;;;;11.70;86.25;98779.33;107343;1274;74216;-74
2022/09/27 09:40:45;;;;;;;3.90;2.00;;;;;;;11.77;85.85;98782.40;107554;1274;61163;-74
2022/09/27 09:43:21;;;;;;;2.80;1.70;;;;;;;11.88;85.86;98789.00;107982;1276;60855;-73
2022/09/27 09:46:01;;;;;;;4.90;1.70;;;;;;;11.93;85.37;98786.90;107328;1274;76004;-74
2022/09/27 09:48:35;;;;;;;2.90;1.40;;;;;;;12.03;84.81;98790.20;107738;1274;71408;-72
2022/09/27 09:51:07;;;;;;;3.20;1.40;;;;;;;12.20;84.58;98786.55;107512;1274;74002;-73
2022/09/27 09:53:56;;;;;;;3.00;1.60;;;;;;;12.34;83.94;98791.53;107734;1273;62285;-73
2022/09/27 09:56:31;;;;;;;4.40;2.20;;;;;;;12.42;81.81;98783.73;107706;1274;61269;-72
2022/09/27 09:59:32;;;;;;;3.30;2.10;;;;;;;12.42;80.96;98795.91;107344;1274;74780;-72
2022/09/27 10:02:16;;;;;;;5.10;2.20;;;;;;;12.47;80.27;98785.42;107577;1274;73003;-73
2022/09/27 10:04:43;;;;;;;3.80;1.70;;;;;;;12.58;80.79;98789.96;107842;1274;72966;-72
2022/09/27 10:07:11;;;;;;;3.80;1.40;;;;;;;12.67;80.58;98795.93;107421;1272;62387;-72
2022/09/27 10:09:38;;;;;;;2.80;1.10;;;;;;;12.69;79.78;98793.80;107567;1274;61602;-72
2022/09/27 10:12:04;;;;;;;5.60;1.40;;;;;;;12.68;79.57;98789.89;107691;1274;75290;-72
2022/09/27 10:14:32;;;;;;;3.80;1.40;;;;;;;12.75;79.96;98797.95;107496;1274;71304;-73
2022/09/27 10:17:03;;;;;;;3.70;1.20;;;;;;;12.93;79.90;98792.66;107132;1275;73210;-74
2022/09/27 10:19:33;;;;;;;3.50;1.60;;;;;;;13.10;78.10;98792.88;107509;1274;63255;-73
2022/09/27 10:22:27;;;;;;;5.10;1.50;;;;;;;13.26;77.78;98786.68;107729;1274;60070;-73
2022/09/27 10:25:02;;;;;;;2.60;1.50;;;;;;;13.22;77.31;98783.79;107897;1273;75162;-73
2022/09/27 10:28:01;;;;;;;3.40;1.40;;;;;;;13.05;76.95;98790.92;107557;1274;72371;-73
2022/09/27 10:30:31;;;;;;;3.00;1.40;;;;;;;12.80;79.25;98784.70;107555;1273;76055;-72
2022/09/27 10:33:14;;;;;;;3.70;1.70;;;;;;;12.54;80.74;98786.84;107086;1273;63548;-73
2022/09/27 10:35:44;;;;;;;3.10;1.80;;;;;;;12.28;81.54;98788.05;107093;1274;61266;-73
2022/09/27 10:38:21;;;;;;;6.40;1.90;;;;;;;12.16;82.36;98790.86;107205;1272;74569;-73
2022/09/27 10:40:54;;;;;;;3.50;1.40;;;;;;;12.05;83.94;98793.23;107844;1273;71100;-73
2022/09/27 10:43:33;;;;;;;3.10;1.50;;;;;;;11.83;83.82;98808.27;107844;1274;73135;-73
2022/09/27 10:46:08;;;;;;;2.40;1.20;;;;;;;11.65;84.40;98803.21;107309;1274;63376;-73
2022/09/27 10:48:38;;;;;;;3.90;1.00;;;;;;;11.46;85.07;98813.15;107546;1274;61269;-72
2022/09/27 10:51:22;;;;;;;1.80;0.80;;;;;;;11.27;86.52;98816.90;107432;1274;75751;-73
2022/09/27 10:53:49;;;;;;;2.50;1.00;;;;;;;11.03;87.94;98809.48;107224;1273;71384;-73
2022/09/27 10:56:23;;;;;;;2.50;0.70;;;;;;;10.87;88.20;98820.08;107402;1274;72943;-72
2022/09/27 10:58:51;;;;;;;1.90;0.70;;;;;;;10.67;89.12;98817.65;107941;1274;62043;-72
2022/09/27 11:01:17;;;;;;;2.90;0.80;;;;;;;10.52;90.75;98815.36;107690;1274;61142;-72
2022/09/27 11:03:51;;;;;;;1.20;0.60;;;;;;;10.51;91.32;98817.57;107557;1274;74958;-71
2022/09/27 11:06:23;;;;;;;2.30;0.60;;;;;;;10.61;92.12;98822.64;107719;1274;71735;-71
2022/09/27 11:08:51;;;;;;;2.30;0.80;;;;;;;10.76;92.52;98814.89;107163;1274;72469;-71
2022/09/27 11:11:27;;;;;;;4.20;1.00;;;;;;;10.94;92.67;98815.23;107277;1274;63560;-70
2022/09/27 11:14:01;;;;;;;3.00;0.70;;;;;;;11.08;92.19;98814.66;107700;1273;60630;-71
2022/09/27 11:16:33;;;;;;;2.40;0.70;;;;;;;11.19;90.97;98816.63;107595;1274;75323;-71
2022/09/27 11:19:24;;;;;;;1.60;0.70;;;;;;;11.32;90.97;98810.82;107707;1274;72445;-71
2022/09/27 11:22:19;;;;;;;2.80;0.80;;;;;;;11.47;90.97;98811.42;107662;1273;73969;-71
2022/09/27 11:25:07;;;;;;;4.30;0.90;;;;;;;11.68;89.84;98811.19;107593;1274;62081;-71
2022/09/27 11:27:53;;;;;;;3.90;0.90;;;;;;;11.86;88.83;98806.89;108208;1274;60397;-71
2022/09/27 11:30:22;;;;;;;4.40;0.90;;;;;;;12.06;87.34;98809.04;107655;1273;74872;-71
2022/09/27 11:33:04;;;;;;;2.50;0.80;;;;;;;12.36;86.54;98807.36;107258;1274;72022;-71
2022/09/27 11:35:55;;;;;;;3.10;0.90;;;;;;;12.76;84.16;98809.91;107886;1274;71919;-71
2022/09/27 11:38:45;;;;;;;2.60;1.00;;;;;;;12.86;83.13;98813.23;107716;1274;63351;-71
2022/09/27 11:41:24;;;;;;;2.70;0.90;;;;;;;12.72;83.57;98815.93;107818;1274;61705;-71
2022/09/27 11:44:10;;;;;;;2.40;0.80;;;;;;;12.55;83.01;98815.32;107850;1271;74620;-71
2022/09/27 11:46:44;;;;;;;2.00;0.90;;;;;;;12.28;82.64;98820.06;108157;1274;71403;-71
2022/09/27 11:49:36;;;;;;;1.70;0.60;;;;;;;12.04;82.08;98828.61;107355;1274;73739;-71
2022/09/27 11:52:27;;;;;;;1.80;0.60;;;;;;;11.79;84.22;98833.29;108130;1274;63211;-71
2022/09/27 11:55:17;;;;;;;2.90;0.70;;;;;;;11.52;84.43;98840.55;107721;1274;61051;-71